Harrisburg, AR

4:15 PM CST on December 22, 2014 (GMT -0600)
Boward and Wofford | Change Station
CLOSE
Current Station
Personal Weather Station
Location: Waldenburg, AR
Elevation: 243 ft
Nearby Weather Stations

Elev 243 ft 35.57 °N, 90.90 °W | Updated 1 minute ago

Overcast
Overcast
54.9 °F
Feels Like 54.9 °F
N
10.0
Wind Variable Wind from ESE
Gusts 13.0 mph

Today
High -- | Low -- °F
--% Chance of Precip.
Yesterday
High -- | Low -- °F
Precip. -- in
7:08 AM 4:54 PM
New Moon, 1% visible
Pressure 29.59 in
Visibility 7.0 miles
Clouds Few 900 ft
Overcast 2200 ft
Dew Point 54 °F
Humidity 95%
Rainfall 0.00 in
Snow Depth Not available.
UV 0 out of 12
Pollen .10 out of 12
Air Quality Not available.
Flu Activity Not available.
METAR KJBR 222153Z AUTO 19007KT 7SM FEW009 OVC022 12/12 A2959 RMK AO2 SLP018 T01170117

More Conditions Fewer Conditions

Pressure 29.59 in
Visibility 7.0 miles
Clouds Few 900 ft
Overcast 2200 ft
Dew Point 54 °F
Humidity 95%
Rainfall 0.00 in
Snow Depth Not available.
UV 0 out of 12
Pollen .10 out of 12
Air Quality Not available.
Flu Activity Not available.
METAR KJBR 222153Z AUTO 19007KT 7SM FEW009 OVC022 12/12 A2959 RMK AO2 SLP018 T01170117

More Conditions Fewer Conditions

10-Day Weather Forecast

Almanac

Astronomy

Dec. 22, 2014 Rise Set
Actual Time
Civil Twilight
Nautical Twilight
Astronomical Twilight
Moon
Length of Visible Light
Length of Day
Tomorrow will be .
, % of the Moon is Illuminated

Today's Extremes

State Highs State Lows

Community

WunderPhotos

Upload Photos

1,779,691 photos uploaded!

WunderBlogs® & News

Nearby

Air Quality

  Air Quality AQ Index Pollutant
Not available.

Snow Depth

Station Depth Elevation

Earthquake Activity

City Distance Mag. Time & Date
Minimum magnitude displayed is 2.5.

Coastal Water Temperatures

Place Temperature

Nearby Weather Stations